sensor_id;sensor_type;location;lat;lon;timestamp;P1;durP1;ratioP1;P2;durP2;ratioP2
21501;SDS011;27639;48.674;9.242;2023-08-30T00:00:17;9.10;;;8.20;;
21501;SDS011;27639;48.674;9.242;2023-08-30T00:02:45;10.88;;;9.77;;
21501;SDS011;27639;48.674;9.242;2023-08-30T00:05:11;9.95;;;8.48;;
21501;SDS011;27639;48.674;9.242;2023-08-30T00:07:36;9.57;;;8.32;;
21501;SDS011;27639;48.674;9.242;2023-08-30T00:10:02;8.95;;;8.00;;
21501;SDS011;27639;48.674;9.242;2023-08-30T00:12:28;9.80;;;8.80;;
21501;SDS011;27639;48.674;9.242;2023-08-30T00:14:54;9.65;;;8.25;;
21501;SDS011;27639;48.674;9.242;2023-08-30T00:17:20;9.15;;;8.20;;
21501;SDS011;27639;48.674;9.242;2023-08-30T00:19:46;9.43;;;8.27;;
21501;SDS011;27639;48.674;9.242;2023-08-30T00:22:13;10.18;;;8.70;;
21501;SDS011;27639;48.674;9.242;2023-08-30T00:24:39;9.48;;;8.02;;
21501;SDS011;27639;48.674;9.242;2023-08-30T00:27:04;10.52;;;8.65;;
21501;SDS011;27639;48.674;9.242;2023-08-30T00:29:30;10.02;;;8.35;;
21501;SDS011;27639;48.674;9.242;2023-08-30T00:31:55;10.43;;;9.07;;
21501;SDS011;27639;48.674;9.242;2023-08-30T00:34:21;9.23;;;8.20;;
21501;SDS011;27639;48.674;9.242;2023-08-30T00:36:47;9.70;;;8.23;;
21501;SDS011;27639;48.674;9.242;2023-08-30T00:39:13;9.68;;;8.68;;
21501;SDS011;27639;48.674;9.242;2023-08-30T00:41:39;8.88;;;7.97;;
21501;SDS011;27639;48.674;9.242;2023-08-30T00:44:05;9.07;;;8.18;;
21501;SDS011;27639;48.674;9.242;2023-08-30T00:46:30;8.80;;;7.90;;
21501;SDS011;27639;48.674;9.242;2023-08-30T00:48:58;9.55;;;8.57;;
21501;SDS011;27639;48.674;9.242;2023-08-30T00:51:27;9.35;;;8.35;;
21501;SDS011;27639;48.674;9.242;2023-08-30T00:53:54;9.88;;;8.73;;
21501;SDS011;27639;48.674;9.242;2023-08-30T00:56:20;9.88;;;8.75;;
21501;SDS011;27639;48.674;9.242;2023-08-30T00:58:47;10.15;;;8.60;;
21501;SDS011;27639;48.674;9.242;2023-08-30T01:01:14;10.88;;;8.98;;
21501;SDS011;27639;48.674;9.242;2023-08-30T01:03:41;9.93;;;8.90;;
21501;SDS011;27639;48.674;9.242;2023-08-30T01:06:06;9.40;;;8.50;;
21501;SDS011;27639;48.674;9.242;2023-08-30T01:08:33;10.45;;;8.52;;
21501;SDS011;27639;48.674;9.242;2023-08-30T01:11:11;10.73;;;8.60;;
21501;SDS011;27639;48.674;9.242;2023-08-30T01:13:56;9.82;;;8.75;;
21501;SDS011;27639;48.674;9.242;2023-08-30T01:16:36;9.20;;;8.13;;
21501;SDS011;27639;48.674;9.242;2023-08-30T01:22:00;9.65;;;8.73;;
21501;SDS011;27639;48.674;9.242;2023-08-30T01:24:45;10.00;;;9.00;;
21501;SDS011;27639;48.674;9.242;2023-08-30T01:27:29;9.35;;;8.45;;
21501;SDS011;27639;48.674;9.242;2023-08-30T01:29:57;9.88;;;8.88;;
21501;SDS011;27639;48.674;9.242;2023-08-30T01:32:23;10.45;;;9.32;;
21501;SDS011;27639;48.674;9.242;2023-08-30T01:34:51;11.40;;;9.38;;
21501;SDS011;27639;48.674;9.242;2023-08-30T01:37:17;9.80;;;8.80;;
21501;SDS011;27639;48.674;9.242;2023-08-30T01:39:43;9.43;;;8.43;;
21501;SDS011;27639;48.674;9.242;2023-08-30T01:42:11;10.10;;;9.10;;
21501;SDS011;27639;48.674;9.242;2023-08-30T01:44:39;9.20;;;8.30;;
21501;SDS011;27639;48.674;9.242;2023-08-30T01:47:09;10.27;;;8.32;;
21501;SDS011;27639;48.674;9.242;2023-08-30T01:49:35;9.57;;;8.57;;
21501;SDS011;27639;48.674;9.242;2023-08-30T01:52:02;9.90;;;8.45;;
21501;SDS011;27639;48.674;9.242;2023-08-30T01:54:28;9.38;;;8.38;;
21501;SDS011;27639;48.674;9.242;2023-08-30T01:56:56;9.23;;;8.23;;
21501;SDS011;27639;48.674;9.242;2023-08-30T01:59:23;9.43;;;8.43;;
21501;SDS011;27639;48.674;9.242;2023-08-30T02:01:49;11.07;;;9.48;;
21501;SDS011;27639;48.674;9.242;2023-08-30T02:04:15;11.38;;;8.95;;
21501;SDS011;27639;48.674;9.242;2023-08-30T02:09:28;10.30;;;9.20;;
21501;SDS011;27639;48.674;9.242;2023-08-30T02:12:02;9.80;;;8.20;;
21501;SDS011;27639;48.674;9.242;2023-08-30T02:14:32;10.13;;;9.13;;
21501;SDS011;27639;48.674;9.242;2023-08-30T02:16:58;9.82;;;8.82;;
21501;SDS011;27639;48.674;9.242;2023-08-30T02:19:24;10.55;;;8.98;;
21501;SDS011;27639;48.674;9.242;2023-08-30T02:21:51;10.95;;;9.02;;
21501;SDS011;27639;48.674;9.242;2023-08-30T02:24:16;9.68;;;8.32;;
21501;SDS011;27639;48.674;9.242;2023-08-30T02:26:42;12.55;;;9.00;;
21501;SDS011;27639;48.674;9.242;2023-08-30T02:29:07;9.95;;;8.60;;
21501;SDS011;27639;48.674;9.242;2023-08-30T02:31:34;9.57;;;8.50;;
21501;SDS011;27639;48.674;9.242;2023-08-30T02:34:00;9.77;;;8.77;;
21501;SDS011;27639;48.674;9.242;2023-08-30T02:36:27;10.02;;;8.75;;
21501;SDS011;27639;48.674;9.242;2023-08-30T02:38:52;9.65;;;8.65;;
21501;SDS011;27639;48.674;9.242;2023-08-30T02:41:18;9.05;;;8.15;;
21501;SDS011;27639;48.674;9.242;2023-08-30T02:43:44;9.68;;;8.68;;
21501;SDS011;27639;48.674;9.242;2023-08-30T02:46:09;10.38;;;8.50;;
21501;SDS011;27639;48.674;9.242;2023-08-30T02:48:35;9.98;;;8.95;;
21501;SDS011;27639;48.674;9.242;2023-08-30T02:51:00;9.75;;;8.75;;
21501;SDS011;27639;48.674;9.242;2023-08-30T02:53:26;11.07;;;9.35;;
21501;SDS011;27639;48.674;9.242;2023-08-30T02:55:52;9.75;;;8.75;;
21501;SDS011;27639;48.674;9.242;2023-08-30T02:58:20;9.77;;;8.77;;
21501;SDS011;27639;48.674;9.242;2023-08-30T03:00:46;10.15;;;8.77;;
21501;SDS011;27639;48.674;9.242;2023-08-30T03:03:12;10.25;;;8.38;;
21501;SDS011;27639;48.674;9.242;2023-08-30T03:05:38;10.65;;;8.60;;
21501;SDS011;27639;48.674;9.242;2023-08-30T03:08:03;9.75;;;8.70;;
21501;SDS011;27639;48.674;9.242;2023-08-30T03:10:29;10.65;;;8.57;;
21501;SDS011;27639;48.674;9.242;2023-08-30T03:12:55;10.15;;;9.05;;
21501;SDS011;27639;48.674;9.242;2023-08-30T03:15:20;10.15;;;8.80;;
21501;SDS011;27639;48.674;9.242;2023-08-30T03:17:46;10.15;;;7.75;;
21501;SDS011;27639;48.674;9.242;2023-08-30T03:20:11;9.52;;;8.52;;
21501;SDS011;27639;48.674;9.242;2023-08-30T03:22:37;10.63;;;8.68;;
21501;SDS011;27639;48.674;9.242;2023-08-30T03:25:02;10.70;;;8.48;;
21501;SDS011;27639;48.674;9.242;2023-08-30T03:27:29;9.45;;;8.25;;
21501;SDS011;27639;48.674;9.242;2023-08-30T03:29:55;9.25;;;8.25;;
21501;SDS011;27639;48.674;9.242;2023-08-30T03:32:21;9.40;;;8.40;;
21501;SDS011;27639;48.674;9.242;2023-08-30T03:34:47;12.63;;;8.98;;
21501;SDS011;27639;48.674;9.242;2023-08-30T03:37:13;9.38;;;8.10;;
21501;SDS011;27639;48.674;9.242;2023-08-30T03:39:39;10.93;;;8.57;;
21501;SDS011;27639;48.674;9.242;2023-08-30T03:42:05;10.95;;;8.40;;
21501;SDS011;27639;48.674;9.242;2023-08-30T03:44:31;9.30;;;8.30;;
21501;SDS011;27639;48.674;9.242;2023-08-30T03:46:56;11.13;;;8.57;;
21501;SDS011;27639;48.674;9.242;2023-08-30T03:49:22;9.52;;;7.75;;
21501;SDS011;27639;48.674;9.242;2023-08-30T03:51:48;10.32;;;7.85;;
21501;SDS011;27639;48.674;9.242;2023-08-30T03:54:13;8.77;;;7.85;;
21501;SDS011;27639;48.674;9.242;2023-08-30T03:56:41;8.55;;;7.65;;
21501;SDS011;27639;48.674;9.242;2023-08-30T03:59:07;9.15;;;8.25;;
21501;SDS011;27639;48.674;9.242;2023-08-30T04:01:33;9.35;;;8.15;;
21501;SDS011;27639;48.674;9.242;2023-08-30T04:03:58;9.05;;;7.57;;
21501;SDS011;27639;48.674;9.242;2023-08-30T04:06:24;10.02;;;8.63;;
21501;SDS011;27639;48.674;9.242;2023-08-30T04:08:49;10.32;;;7.47;;
21501;SDS011;27639;48.674;9.242;2023-08-30T04:11:15;7.95;;;7.15;;
21501;SDS011;27639;48.674;9.242;2023-08-30T04:13:40;9.02;;;7.65;;
21501;SDS011;27639;48.674;9.242;2023-08-30T04:16:06;10.30;;;8.18;;
21501;SDS011;27639;48.674;9.242;2023-08-30T04:18:32;12.05;;;7.93;;
21501;SDS011;27639;48.674;9.242;2023-08-30T04:20:58;8.55;;;7.28;;
21501;SDS011;27639;48.674;9.242;2023-08-30T04:23:23;9.05;;;7.20;;
21501;SDS011;27639;48.674;9.242;2023-08-30T04:25:49;11.73;;;8.57;;
21501;SDS011;27639;48.674;9.242;2023-08-30T04:28:15;9.13;;;7.63;;
21501;SDS011;27639;48.674;9.242;2023-08-30T04:30:40;10.77;;;8.43;;
21501;SDS011;27639;48.674;9.242;2023-08-30T04:33:06;9.15;;;8.25;;
21501;SDS011;27639;48.674;9.242;2023-08-30T04:35:31;9.48;;;7.75;;
21501;SDS011;27639;48.674;9.242;2023-08-30T04:37:59;9.27;;;8.13;;
21501;SDS011;27639;48.674;9.242;2023-08-30T04:40:24;10.05;;;7.55;;
21501;SDS011;27639;48.674;9.242;2023-08-30T04:42:50;8.40;;;7.53;;
21501;SDS011;27639;48.674;9.242;2023-08-30T04:45:16;10.07;;;8.70;;
21501;SDS011;27639;48.674;9.242;2023-08-30T04:47:41;8.38;;;7.38;;
21501;SDS011;27639;48.674;9.242;2023-08-30T04:50:08;8.10;;;7.28;;
21501;SDS011;27639;48.674;9.242;2023-08-30T04:52:34;11.07;;;7.97;;
21501;SDS011;27639;48.674;9.242;2023-08-30T04:55:00;9.43;;;8.35;;
21501;SDS011;27639;48.674;9.242;2023-08-30T04:57:25;10.35;;;8.40;;
21501;SDS011;27639;48.674;9.242;2023-08-30T04:59:51;9.55;;;7.68;;
21501;SDS011;27639;48.674;9.242;2023-08-30T05:02:16;9.73;;;8.30;;
21501;SDS011;27639;48.674;9.242;2023-08-30T05:04:42;9.38;;;7.97;;
21501;SDS011;27639;48.674;9.242;2023-08-30T05:07:08;9.70;;;8.65;;
21501;SDS011;27639;48.674;9.242;2023-08-30T05:09:33;10.77;;;8.27;;
21501;SDS011;27639;48.674;9.242;2023-08-30T05:11:59;10.13;;;8.40;;
21501;SDS011;27639;48.674;9.242;2023-08-30T05:14:25;10.48;;;8.65;;
21501;SDS011;27639;48.674;9.242;2023-08-30T05:16:51;9.60;;;8.60;;
21501;SDS011;27639;48.674;9.242;2023-08-30T05:19:17;8.95;;;8.05;;
21501;SDS011;27639;48.674;9.242;2023-08-30T05:21:43;9.77;;;8.77;;
21501;SDS011;27639;48.674;9.242;2023-08-30T05:24:09;9.82;;;8.18;;
21501;SDS011;27639;48.674;9.242;2023-08-30T05:26:35;11.57;;;7.82;;
21501;SDS011;27639;48.674;9.242;2023-08-30T05:29:01;10.82;;;7.80;;
21501;SDS011;27639;48.674;9.242;2023-08-30T05:31:27;10.57;;;8.25;;
21501;SDS011;27639;48.674;9.242;2023-08-30T05:33:52;9.98;;;8.43;;
21501;SDS011;27639;48.674;9.242;2023-08-30T05:36:18;10.32;;;8.57;;
21501;SDS011;27639;48.674;9.242;2023-08-30T05:38:43;10.77;;;8.68;;
21501;SDS011;27639;48.674;9.242;2023-08-30T05:41:09;9.60;;;8.40;;
21501;SDS011;27639;48.674;9.242;2023-08-30T05:43:35;9.88;;;8.70;;
21501;SDS011;27639;48.674;9.242;2023-08-30T05:46:00;10.85;;;8.52;;
21501;SDS011;27639;48.674;9.242;2023-08-30T05:48:27;11.98;;;9.50;;
21501;SDS011;27639;48.674;9.242;2023-08-30T05:50:53;9.10;;;8.00;;
21501;SDS011;27639;48.674;9.242;2023-08-30T05:53:19;10.15;;;8.10;;
21501;SDS011;27639;48.674;9.242;2023-08-30T05:55:45;9.63;;;8.40;;
21501;SDS011;27639;48.674;9.242;2023-08-30T05:58:10;9.40;;;8.00;;
21501;SDS011;27639;48.674;9.242;2023-08-30T06:00:36;8.73;;;7.82;;
21501;SDS011;27639;48.674;9.242;2023-08-30T06:03:01;9.75;;;8.43;;
21501;SDS011;27639;48.674;9.242;2023-08-30T06:05:28;8.70;;;7.72;;
21501;SDS011;27639;48.674;9.242;2023-08-30T06:07:53;9.57;;;7.70;;
21501;SDS011;27639;48.674;9.242;2023-08-30T06:10:19;8.85;;;7.70;;
21501;SDS011;27639;48.674;9.242;2023-08-30T06:12:45;8.65;;;7.57;;
21501;SDS011;27639;48.674;9.242;2023-08-30T06:15:10;8.93;;;7.40;;
21501;SDS011;27639;48.674;9.242;2023-08-30T06:17:36;8.48;;;7.60;;
21501;SDS011;27639;48.674;9.242;2023-08-30T06:20:01;7.47;;;6.45;;
21501;SDS011;27639;48.674;9.242;2023-08-30T06:22:28;8.32;;;6.85;;
21501;SDS011;27639;48.674;9.242;2023-08-30T06:24:53;7.65;;;6.80;;
21501;SDS011;27639;48.674;9.242;2023-08-30T06:27:19;8.60;;;7.32;;
21501;SDS011;27639;48.674;9.242;2023-08-30T06:29:45;9.65;;;7.13;;
21501;SDS011;27639;48.674;9.242;2023-08-30T06:32:11;7.70;;;6.88;;
21501;SDS011;27639;48.674;9.242;2023-08-30T06:34:36;8.07;;;7.20;;
21501;SDS011;27639;48.674;9.242;2023-08-30T06:37:02;8.43;;;7.53;;
21501;SDS011;27639;48.674;9.242;2023-08-30T06:39:34;8.20;;;7.05;;
21501;SDS011;27639;48.674;9.242;2023-08-30T06:42:01;9.20;;;7.27;;
21501;SDS011;27639;48.674;9.242;2023-08-30T06:44:30;9.10;;;6.75;;
21501;SDS011;27639;48.674;9.242;2023-08-30T06:46:56;8.20;;;6.50;;
21501;SDS011;27639;48.674;9.242;2023-08-30T06:49:22;8.02;;;7.10;;
21501;SDS011;27639;48.674;9.242;2023-08-30T06:51:48;8.20;;;6.85;;
21501;SDS011;27639;48.674;9.242;2023-08-30T06:54:13;10.57;;;7.00;;
21501;SDS011;27639;48.674;9.242;2023-08-30T06:56:39;8.45;;;6.50;;
21501;SDS011;27639;48.674;9.242;2023-08-30T06:59:04;8.50;;;7.22;;
21501;SDS011;27639;48.674;9.242;2023-08-30T07:01:30;8.15;;;6.43;;
21501;SDS011;27639;48.674;9.242;2023-08-30T07:03:56;7.53;;;6.63;;
21501;SDS011;27639;48.674;9.242;2023-08-30T07:06:22;6.72;;;6.03;;
21501;SDS011;27639;48.674;9.242;2023-08-30T07:08:48;7.03;;;6.00;;
21501;SDS011;27639;48.674;9.242;2023-08-30T07:11:13;6.97;;;5.93;;
21501;SDS011;27639;48.674;9.242;2023-08-30T07:13:39;6.60;;;5.90;;
21501;SDS011;27639;48.674;9.242;2023-08-30T07:16:04;6.47;;;5.60;;
21501;SDS011;27639;48.674;9.242;2023-08-30T07:18:30;7.32;;;6.00;;
21501;SDS011;27639;48.674;9.242;2023-08-30T07:20:55;7.28;;;6.00;;
21501;SDS011;27639;48.674;9.242;2023-08-30T07:23:21;6.32;;;5.40;;
21501;SDS011;27639;48.674;9.242;2023-08-30T07:25:46;7.70;;;5.95;;
21501;SDS011;27639;48.674;9.242;2023-08-30T07:28:12;6.90;;;6.00;;
21501;SDS011;27639;48.674;9.242;2023-08-30T07:30:37;6.07;;;5.15;;
21501;SDS011;27639;48.674;9.242;2023-08-30T07:33:03;8.50;;;5.38;;
21501;SDS011;27639;48.674;9.242;2023-08-30T07:35:30;7.07;;;5.40;;
21501;SDS011;27639;48.674;9.242;2023-08-30T07:37:56;6.55;;;4.95;;
21501;SDS011;27639;48.674;9.242;2023-08-30T07:40:21;5.75;;;4.93;;
21501;SDS011;27639;48.674;9.242;2023-08-30T07:42:51;7.00;;;5.30;;
21501;SDS011;27639;48.674;9.242;2023-08-30T07:45:17;5.82;;;4.93;;
21501;SDS011;27639;48.674;9.242;2023-08-30T07:47:43;6.15;;;5.05;;
21501;SDS011;27639;48.674;9.242;2023-08-30T07:50:08;7.18;;;5.00;;
21501;SDS011;27639;48.674;9.242;2023-08-30T07:52:34;6.60;;;5.03;;
21501;SDS011;27639;48.674;9.242;2023-08-30T07:55:00;6.22;;;5.30;;
21501;SDS011;27639;48.674;9.242;2023-08-30T07:57:25;5.53;;;4.70;;
21501;SDS011;27639;48.674;9.242;2023-08-30T07:59:52;6.50;;;5.38;;
21501;SDS011;27639;48.674;9.242;2023-08-30T08:02:17;7.22;;;5.55;;
21501;SDS011;27639;48.674;9.242;2023-08-30T08:04:43;6.85;;;5.78;;
21501;SDS011;27639;48.674;9.242;2023-08-30T08:07:09;6.18;;;5.40;;
21501;SDS011;27639;48.674;9.242;2023-08-30T08:09:34;7.28;;;5.95;;
21501;SDS011;27639;48.674;9.242;2023-08-30T08:12:00;7.22;;;5.35;;
21501;SDS011;27639;48.674;9.242;2023-08-30T08:14:25;8.27;;;6.28;;
21501;SDS011;27639;48.674;9.242;2023-08-30T08:16:51;6.10;;;5.05;;
21501;SDS011;27639;48.674;9.242;2023-08-30T08:19:17;7.40;;;5.88;;
21501;SDS011;27639;48.674;9.242;2023-08-30T08:21:42;6.70;;;5.30;;
21501;SDS011;27639;48.674;9.242;2023-08-30T08:24:08;7.45;;;6.00;;
21501;SDS011;27639;48.674;9.242;2023-08-30T08:26:33;6.30;;;5.47;;
21501;SDS011;27639;48.674;9.242;2023-08-30T08:28:59;7.07;;;5.68;;
21501;SDS011;27639;48.674;9.242;2023-08-30T08:31:25;6.93;;;5.20;;
21501;SDS011;27639;48.674;9.242;2023-08-30T08:33:50;5.93;;;4.97;;
21501;SDS011;27639;48.674;9.242;2023-08-30T08:36:29;5.60;;;5.00;;
21501;SDS011;27639;48.674;9.242;2023-08-30T08:38:54;6.72;;;4.80;;
21501;SDS011;27639;48.674;9.242;2023-08-30T08:41:20;6.32;;;5.00;;
21501;SDS011;27639;48.674;9.242;2023-08-30T08:43:46;5.93;;;4.45;;
21501;SDS011;27639;48.674;9.242;2023-08-30T08:46:12;7.10;;;4.90;;
21501;SDS011;27639;48.674;9.242;2023-08-30T08:48:40;5.60;;;4.47;;
21501;SDS011;27639;48.674;9.242;2023-08-30T08:51:08;6.43;;;4.75;;
21501;SDS011;27639;48.674;9.242;2023-08-30T08:53:34;7.55;;;4.55;;
21501;SDS011;27639;48.674;9.242;2023-08-30T08:56:01;5.28;;;4.30;;
21501;SDS011;27639;48.674;9.242;2023-08-30T08:58:27;5.60;;;4.22;;
21501;SDS011;27639;48.674;9.242;2023-08-30T09:00:52;6.18;;;4.18;;
21501;SDS011;27639;48.674;9.242;2023-08-30T09:03:19;4.70;;;4.05;;
21501;SDS011;27639;48.674;9.242;2023-08-30T09:05:46;4.40;;;3.55;;
21501;SDS011;27639;48.674;9.242;2023-08-30T09:08:13;5.50;;;3.65;;
21501;SDS011;27639;48.674;9.242;2023-08-30T09:10:41;6.07;;;4.30;;
21501;SDS011;27639;48.674;9.242;2023-08-30T09:13:07;5.80;;;3.60;;
21501;SDS011;27639;48.674;9.242;2023-08-30T09:15:33;5.90;;;3.83;;
21501;SDS011;27639;48.674;9.242;2023-08-30T09:18:02;6.13;;;4.00;;
21501;SDS011;27639;48.674;9.242;2023-08-30T09:20:28;6.38;;;4.47;;
21501;SDS011;27639;48.674;9.242;2023-08-30T09:22:53;5.63;;;4.10;;
21501;SDS011;27639;48.674;9.242;2023-08-30T09:25:24;5.40;;;4.25;;
21501;SDS011;27639;48.674;9.242;2023-08-30T09:27:51;4.97;;;3.63;;
21501;SDS011;27639;48.674;9.242;2023-08-30T09:30:26;5.28;;;3.63;;
21501;SDS011;27639;48.674;9.242;2023-08-30T09:32:52;4.80;;;4.15;;
21501;SDS011;27639;48.674;9.242;2023-08-30T09:35:17;4.60;;;3.70;;
21501;SDS011;27639;48.674;9.242;2023-08-30T09:37:46;4.28;;;3.58;;
21501;SDS011;27639;48.674;9.242;2023-08-30T09:40:12;4.35;;;3.80;;
21501;SDS011;27639;48.674;9.242;2023-08-30T09:42:43;4.47;;;3.20;;
21501;SDS011;27639;48.674;9.242;2023-08-30T09:45:18;4.10;;;3.30;;
21501;SDS011;27639;48.674;9.242;2023-08-30T09:47:48;4.45;;;3.58;;
21501;SDS011;27639;48.674;9.242;2023-08-30T09:50:18;6.20;;;3.50;;
21501;SDS011;27639;48.674;9.242;2023-08-30T09:52:47;4.93;;;3.38;;
21501;SDS011;27639;48.674;9.242;2023-08-30T09:55:14;4.65;;;3.15;;
21501;SDS011;27639;48.674;9.242;2023-08-30T09:57:41;4.10;;;3.40;;
21501;SDS011;27639;48.674;9.242;2023-08-30T10:00:08;4.00;;;3.40;;
21501;SDS011;27639;48.674;9.242;2023-08-30T10:02:37;5.13;;;3.20;;
21501;SDS011;27639;48.674;9.242;2023-08-30T10:05:06;3.80;;;3.13;;
21501;SDS011;27639;48.674;9.242;2023-08-30T10:07:35;4.00;;;3.17;;
21501;SDS011;27639;48.674;9.242;2023-08-30T10:10:02;4.47;;;3.15;;
21501;SDS011;27639;48.674;9.242;2023-08-30T10:12:31;4.63;;;3.40;;
21501;SDS011;27639;48.674;9.242;2023-08-30T10:14:57;3.88;;;2.97;;
21501;SDS011;27639;48.674;9.242;2023-08-30T10:17:23;4.72;;;3.10;;
21501;SDS011;27639;48.674;9.242;2023-08-30T10:19:53;3.65;;;2.88;;
21501;SDS011;27639;48.674;9.242;2023-08-30T10:22:20;5.00;;;2.85;;
21501;SDS011;27639;48.674;9.242;2023-08-30T10:27:18;4.30;;;2.88;;
21501;SDS011;27639;48.674;9.242;2023-08-30T10:29:45;4.47;;;2.95;;
21501;SDS011;27639;48.674;9.242;2023-08-30T10:32:18;3.97;;;2.97;;
21501;SDS011;27639;48.674;9.242;2023-08-30T10:34:48;4.93;;;3.38;;
21501;SDS011;27639;48.674;9.242;2023-08-30T10:37:14;3.92;;;2.90;;
21501;SDS011;27639;48.674;9.242;2023-08-30T10:39:41;5.05;;;3.38;;
21501;SDS011;27639;48.674;9.242;2023-08-30T10:42:14;3.80;;;3.00;;
21501;SDS011;27639;48.674;9.242;2023-08-30T10:44:47;4.32;;;3.17;;
21501;SDS011;27639;48.674;9.242;2023-08-30T10:47:22;3.67;;;2.88;;
21501;SDS011;27639;48.674;9.242;2023-08-30T10:49:53;4.25;;;3.05;;
21501;SDS011;27639;48.674;9.242;2023-08-30T10:52:20;4.60;;;3.22;;
21501;SDS011;27639;48.674;9.242;2023-08-30T10:54:46;4.55;;;3.05;;
21501;SDS011;27639;48.674;9.242;2023-08-30T10:57:15;3.60;;;3.15;;
21501;SDS011;27639;48.674;9.242;2023-08-30T11:02:38;3.95;;;2.88;;
21501;SDS011;27639;48.674;9.242;2023-08-30T11:05:08;3.80;;;2.55;;
21501;SDS011;27639;48.674;9.242;2023-08-30T11:07:34;4.22;;;2.97;;
21501;SDS011;27639;48.674;9.242;2023-08-30T11:10:03;3.60;;;2.58;;
21501;SDS011;27639;48.674;9.242;2023-08-30T11:12:30;4.25;;;2.65;;
21501;SDS011;27639;48.674;9.242;2023-08-30T11:14:56;4.50;;;2.83;;
21501;SDS011;27639;48.674;9.242;2023-08-30T11:17:21;3.85;;;2.80;;
21501;SDS011;27639;48.674;9.242;2023-08-30T11:19:50;4.10;;;2.78;;
21501;SDS011;27639;48.674;9.242;2023-08-30T11:22:21;3.83;;;2.95;;
21501;SDS011;27639;48.674;9.242;2023-08-30T11:24:47;4.07;;;2.90;;
21501;SDS011;27639;48.674;9.242;2023-08-30T11:27:15;4.80;;;2.63;;
21501;SDS011;27639;48.674;9.242;2023-08-30T11:29:44;5.88;;;3.70;;
21501;SDS011;27639;48.674;9.242;2023-08-30T11:32:10;4.03;;;2.78;;
21501;SDS011;27639;48.674;9.242;2023-08-30T11:34:35;3.90;;;2.70;;
21501;SDS011;27639;48.674;9.242;2023-08-30T11:37:01;3.50;;;2.60;;
21501;SDS011;27639;48.674;9.242;2023-08-30T11:39:30;3.88;;;2.88;;
21501;SDS011;27639;48.674;9.242;2023-08-30T11:41:56;3.58;;;2.55;;
21501;SDS011;27639;48.674;9.242;2023-08-30T11:44:23;3.67;;;2.38;;
21501;SDS011;27639;48.674;9.242;2023-08-30T11:46:48;4.07;;;2.45;;
21501;SDS011;27639;48.674;9.242;2023-08-30T11:49:17;3.60;;;2.45;;
21501;SDS011;27639;48.674;9.242;2023-08-30T11:51:43;3.22;;;2.45;;
21501;SDS011;27639;48.674;9.242;2023-08-30T11:54:08;7.43;;;4.40;;
21501;SDS011;27639;48.674;9.242;2023-08-30T11:56:34;4.60;;;3.22;;
21501;SDS011;27639;48.674;9.242;2023-08-30T11:59:00;5.45;;;2.90;;
21501;SDS011;27639;48.674;9.242;2023-08-30T12:01:27;4.57;;;2.40;;
21501;SDS011;27639;48.674;9.242;2023-08-30T12:03:53;3.97;;;2.35;;
21501;SDS011;27639;48.674;9.242;2023-08-30T12:06:19;3.40;;;2.50;;
21501;SDS011;27639;48.674;9.242;2023-08-30T12:08:47;3.67;;;2.70;;
21501;SDS011;27639;48.674;9.242;2023-08-30T12:11:17;4.45;;;2.72;;
21501;SDS011;27639;48.674;9.242;2023-08-30T12:13:44;3.60;;;2.60;;
21501;SDS011;27639;48.674;9.242;2023-08-30T12:16:14;5.10;;;2.80;;
21501;SDS011;27639;48.674;9.242;2023-08-30T12:18:40;3.67;;;2.03;;
21501;SDS011;27639;48.674;9.242;2023-08-30T12:21:07;3.75;;;1.55;;
21501;SDS011;27639;48.674;9.242;2023-08-30T12:23:32;3.17;;;1.58;;
21501;SDS011;27639;48.674;9.242;2023-08-30T12:26:09;5.05;;;2.00;;
21501;SDS011;27639;48.674;9.242;2023-08-30T12:28:38;3.53;;;2.03;;
21501;SDS011;27639;48.674;9.242;2023-08-30T12:31:06;4.55;;;1.77;;
21501;SDS011;27639;48.674;9.242;2023-08-30T12:33:35;4.00;;;2.17;;
21501;SDS011;27639;48.674;9.242;2023-08-30T12:36:02;3.92;;;1.80;;
21501;SDS011;27639;48.674;9.242;2023-08-30T12:38:28;4.15;;;1.90;;
21501;SDS011;27639;48.674;9.242;2023-08-30T12:40:54;3.30;;;1.85;;
21501;SDS011;27639;48.674;9.242;2023-08-30T12:43:21;5.47;;;2.58;;
21501;SDS011;27639;48.674;9.242;2023-08-30T12:45:48;4.05;;;2.30;;
21501;SDS011;27639;48.674;9.242;2023-08-30T12:48:15;4.28;;;2.25;;
21501;SDS011;27639;48.674;9.242;2023-08-30T12:50:43;4.35;;;2.10;;
21501;SDS011;27639;48.674;9.242;2023-08-30T12:53:10;4.68;;;2.28;;
21501;SDS011;27639;48.674;9.242;2023-08-30T12:55:36;3.47;;;2.10;;
21501;SDS011;27639;48.674;9.242;2023-08-30T12:58:05;3.20;;;2.20;;
21501;SDS011;27639;48.674;9.242;2023-08-30T13:00:32;3.38;;;2.30;;
21501;SDS011;27639;48.674;9.242;2023-08-30T13:02:58;3.30;;;1.83;;
21501;SDS011;27639;48.674;9.242;2023-08-30T13:05:24;3.10;;;1.70;;
21501;SDS011;27639;48.674;9.242;2023-08-30T13:07:49;2.78;;;1.50;;
21501;SDS011;27639;48.674;9.242;2023-08-30T13:10:15;3.22;;;1.58;;
21501;SDS011;27639;48.674;9.242;2023-08-30T13:12:42;2.65;;;1.45;;
21501;SDS011;27639;48.674;9.242;2023-08-30T13:15:08;3.65;;;1.95;;
21501;SDS011;27639;48.674;9.242;2023-08-30T13:17:34;4.47;;;2.20;;
21501;SDS011;27639;48.674;9.242;2023-08-30T13:19:59;3.88;;;2.00;;
21501;SDS011;27639;48.674;9.242;2023-08-30T13:22:26;3.80;;;2.15;;
21501;SDS011;27639;48.674;9.242;2023-08-30T13:24:52;2.80;;;1.63;;
21501;SDS011;27639;48.674;9.242;2023-08-30T13:27:18;5.13;;;2.10;;
21501;SDS011;27639;48.674;9.242;2023-08-30T13:29:43;3.50;;;1.80;;
21501;SDS011;27639;48.674;9.242;2023-08-30T13:32:09;3.17;;;1.98;;
21501;SDS011;27639;48.674;9.242;2023-08-30T13:34:35;3.15;;;2.10;;
21501;SDS011;27639;48.674;9.242;2023-08-30T13:37:00;3.25;;;2.10;;
21501;SDS011;27639;48.674;9.242;2023-08-30T13:39:26;3.25;;;2.00;;
21501;SDS011;27639;48.674;9.242;2023-08-30T13:41:51;3.45;;;2.25;;
21501;SDS011;27639;48.674;9.242;2023-08-30T13:44:17;3.38;;;1.95;;
21501;SDS011;27639;48.674;9.242;2023-08-30T13:46:43;3.17;;;2.03;;
21501;SDS011;27639;48.674;9.242;2023-08-30T13:49:09;3.65;;;2.05;;
21501;SDS011;27639;48.674;9.242;2023-08-30T13:51:35;4.32;;;2.05;;
21501;SDS011;27639;48.674;9.242;2023-08-30T13:54:01;3.85;;;2.33;;
21501;SDS011;27639;48.674;9.242;2023-08-30T13:56:27;3.75;;;2.35;;
21501;SDS011;27639;48.674;9.242;2023-08-30T13:58:55;5.32;;;2.33;;
21501;SDS011;27639;48.674;9.242;2023-08-30T14:01:21;3.13;;;2.03;;
21501;SDS011;27639;48.674;9.242;2023-08-30T14:03:47;4.53;;;2.35;;
21501;SDS011;27639;48.674;9.242;2023-08-30T14:06:12;3.50;;;2.10;;
21501;SDS011;27639;48.674;9.242;2023-08-30T14:08:38;3.30;;;2.28;;
21501;SDS011;27639;48.674;9.242;2023-08-30T14:11:03;3.97;;;2.25;;
21501;SDS011;27639;48.674;9.242;2023-08-30T14:13:29;5.05;;;2.90;;
21501;SDS011;27639;48.674;9.242;2023-08-30T14:16:07;3.83;;;2.47;;
21501;SDS011;27639;48.674;9.242;2023-08-30T14:18:33;4.25;;;2.38;;
21501;SDS011;27639;48.674;9.242;2023-08-30T14:20:59;3.47;;;2.17;;
21501;SDS011;27639;48.674;9.242;2023-08-30T14:23:25;4.05;;;2.30;;
21501;SDS011;27639;48.674;9.242;2023-08-30T14:26:04;3.67;;;2.20;;
21501;SDS011;27639;48.674;9.242;2023-08-30T14:28:34;4.22;;;2.58;;
21501;SDS011;27639;48.674;9.242;2023-08-30T14:31:01;8.50;;;3.45;;
21501;SDS011;27639;48.674;9.242;2023-08-30T14:33:26;4.18;;;2.35;;
21501;SDS011;27639;48.674;9.242;2023-08-30T14:35:52;5.53;;;3.60;;
21501;SDS011;27639;48.674;9.242;2023-08-30T14:38:17;3.38;;;2.28;;
21501;SDS011;27639;48.674;9.242;2023-08-30T14:40:43;3.50;;;2.38;;
21501;SDS011;27639;48.674;9.242;2023-08-30T14:43:09;4.00;;;2.30;;
21501;SDS011;27639;48.674;9.242;2023-08-30T14:45:34;3.25;;;2.30;;
21501;SDS011;27639;48.674;9.242;2023-08-30T14:48:00;3.63;;;2.30;;
21501;SDS011;27639;48.674;9.242;2023-08-30T14:50:25;3.40;;;2.08;;
21501;SDS011;27639;48.674;9.242;2023-08-30T14:52:51;3.58;;;2.30;;